sensor_id;sensor_type;location;lat;lon;timestamp;temperature;humidity
72202;SHT30;60105;54.956;73.412;2023-04-25T00:01:29;4.31;42.07
72202;SHT30;60105;54.956;73.412;2023-04-25T00:04:31;4.38;42.62
72202;SHT30;60105;54.956;73.412;2023-04-25T00:07:34;4.45;42.15
72202;SHT30;60105;54.956;73.412;2023-04-25T00:10:36;4.61;41.63
72202;SHT30;60105;54.956;73.412;2023-04-25T00:13:37;4.68;41.70
72202;SHT30;60105;54.956;73.412;2023-04-25T00:16:38;4.62;42.60
72202;SHT30;60105;54.956;73.412;2023-04-25T00:19:52;4.60;43.04
72202;SHT30;60105;54.956;73.412;2023-04-25T00:22:58;4.62;42.80
72202;SHT30;60105;54.956;73.412;2023-04-25T00:25:59;4.58;42.97
72202;SHT30;60105;54.956;73.412;2023-04-25T00:29:01;4.65;43.57
72202;SHT30;60105;54.956;73.412;2023-04-25T00:32:25;4.61;42.79
72202;SHT30;60105;54.956;73.412;2023-04-25T00:35:26;4.64;43.56
72202;SHT30;60105;54.956;73.412;2023-04-25T00:38:28;4.71;42.95
72202;SHT30;60105;54.956;73.412;2023-04-25T00:41:29;4.79;44.08
72202;SHT30;60105;54.956;73.412;2023-04-25T00:44:31;4.92;42.53
72202;SHT30;60105;54.956;73.412;2023-04-25T00:47:43;4.93;42.33
72202;SHT30;60105;54.956;73.412;2023-04-25T00:50:55;4.99;42.56
72202;SHT30;60105;54.956;73.412;2023-04-25T00:54:08;5.08;41.73
72202;SHT30;60105;54.956;73.412;2023-04-25T00:57:25;5.09;41.36
72202;SHT30;60105;54.956;73.412;2023-04-25T01:00:37;5.02;41.44
72202;SHT30;60105;54.956;73.412;2023-04-25T01:03:49;5.08;41.36
72202;SHT30;60105;54.956;73.412;2023-04-25T01:07:25;5.13;40.73
72202;SHT30;60105;54.956;73.412;2023-04-25T01:10:31;5.22;40.88
72202;SHT30;60105;54.956;73.412;2023-04-25T01:13:33;5.26;41.11
72202;SHT30;60105;54.956;73.412;2023-04-25T01:16:34;5.29;41.11
72202;SHT30;60105;54.956;73.412;2023-04-25T01:19:36;5.34;40.24
72202;SHT30;60105;54.956;73.412;2023-04-25T01:22:43;5.50;39.96
72202;SHT30;60105;54.956;73.412;2023-04-25T01:25:45;5.55;39.66
72202;SHT30;60105;54.956;73.412;2023-04-25T01:28:47;5.60;40.20
72202;SHT30;60105;54.956;73.412;2023-04-25T01:32:26;5.67;39.39
72202;SHT30;60105;54.956;73.412;2023-04-25T01:35:29;5.67;39.36
72202;SHT30;60105;54.956;73.412;2023-04-25T01:38:31;5.74;39.61
72202;SHT30;60105;54.956;73.412;2023-04-25T01:41:33;5.74;39.88
72202;SHT30;60105;54.956;73.412;2023-04-25T01:44:35;5.82;40.22
72202;SHT30;60105;54.956;73.412;2023-04-25T01:47:38;5.99;40.13
72202;SHT30;60105;54.956;73.412;2023-04-25T01:50:45;6.09;40.33
72202;SHT30;60105;54.956;73.412;2023-04-25T01:53:47;6.12;39.88
72202;SHT30;60105;54.956;73.412;2023-04-25T01:57:25;6.23;39.96
72202;SHT30;60105;54.956;73.412;2023-04-25T02:00:27;6.37;39.32
72202;SHT30;60105;54.956;73.412;2023-04-25T02:03:30;6.40;38.98
72202;SHT30;60105;54.956;73.412;2023-04-25T02:06:32;6.57;39.32
72202;SHT30;60105;54.956;73.412;2023-04-25T02:09:34;6.68;38.93
72202;SHT30;60105;54.956;73.412;2023-04-25T02:12:39;6.84;38.78
72202;SHT30;60105;54.956;73.412;2023-04-25T02:16:16;6.97;38.52
72202;SHT30;60105;54.956;73.412;2023-04-25T02:19:17;7.12;38.08
72202;SHT30;60105;54.956;73.412;2023-04-25T02:22:25;7.22;38.30
72202;SHT30;60105;54.956;73.412;2023-04-25T02:25:27;7.30;38.35
72202;SHT30;60105;54.956;73.412;2023-04-25T02:28:29;7.43;37.86
72202;SHT30;60105;54.956;73.412;2023-04-25T02:31:31;7.55;37.28
72202;SHT30;60105;54.956;73.412;2023-04-25T02:34:32;7.65;37.71
72202;SHT30;60105;54.956;73.412;2023-04-25T02:37:36;7.76;37.39
72202;SHT30;60105;54.956;73.412;2023-04-25T02:40:38;7.93;36.81
72202;SHT30;60105;54.956;73.412;2023-04-25T02:43:39;8.08;36.64
72202;SHT30;60105;54.956;73.412;2023-04-25T02:46:40;8.22;36.78
72202;SHT30;60105;54.956;73.412;2023-04-25T02:49:42;8.38;36.38
72202;SHT30;60105;54.956;73.412;2023-04-25T02:52:44;8.45;35.30
72202;SHT30;60105;54.956;73.412;2023-04-25T02:55:50;8.57;35.44
72202;SHT30;60105;54.956;73.412;2023-04-25T02:58:53;8.59;35.71
72202;SHT30;60105;54.956;73.412;2023-04-25T03:02:25;8.60;35.44
72202;SHT30;60105;54.956;73.412;2023-04-25T03:05:27;8.65;36.05
72202;SHT30;60105;54.956;73.412;2023-04-25T03:08:38;8.83;36.23
72202;SHT30;60105;54.956;73.412;2023-04-25T03:11:40;9.00;36.40
72202;SHT30;60105;54.956;73.412;2023-04-25T03:14:41;9.07;35.83
72202;SHT30;60105;54.956;73.412;2023-04-25T03:17:42;9.10;35.41
72202;SHT30;60105;54.956;73.412;2023-04-25T03:20:44;9.14;35.81
72202;SHT30;60105;54.956;73.412;2023-04-25T03:23:45;9.25;35.01
72202;SHT30;60105;54.956;73.412;2023-04-25T03:27:25;9.13;34.58
72202;SHT30;60105;54.956;73.412;2023-04-25T03:30:27;9.27;35.09
72202;SHT30;60105;54.956;73.412;2023-04-25T03:33:28;9.39;35.18
72202;SHT30;60105;54.956;73.412;2023-04-25T03:36:37;9.49;34.86
72202;SHT30;60105;54.956;73.412;2023-04-25T03:39:43;9.52;35.15
72202;SHT30;60105;54.956;73.412;2023-04-25T03:42:45;9.48;34.96
72202;SHT30;60105;54.956;73.412;2023-04-25T03:45:47;9.51;34.38
72202;SHT30;60105;54.956;73.412;2023-04-25T03:48:49;9.66;34.56
72202;SHT30;60105;54.956;73.412;2023-04-25T03:52:25;9.86;34.11
72202;SHT30;60105;54.956;73.412;2023-04-25T03:55:28;10.09;33.71
72202;SHT30;60105;54.956;73.412;2023-04-25T03:58:29;10.21;32.99
72202;SHT30;60105;54.956;73.412;2023-04-25T04:01:41;10.14;33.22
72202;SHT30;60105;54.956;73.412;2023-04-25T04:04:52;10.24;33.26
72202;SHT30;60105;54.956;73.412;2023-04-25T04:08:04;10.29;33.25
72202;SHT30;60105;54.956;73.412;2023-04-25T04:11:07;10.45;33.21
72202;SHT30;60105;54.956;73.412;2023-04-25T04:14:13;10.51;33.42
72202;SHT30;60105;54.956;73.412;2023-04-25T04:17:25;10.64;32.88
72202;SHT30;60105;54.956;73.412;2023-04-25T04:20:32;10.75;32.86
72202;SHT30;60105;54.956;73.412;2023-04-25T04:23:38;10.82;32.75
72202;SHT30;60105;54.956;73.412;2023-04-25T04:26:41;11.02;32.08
72202;SHT30;60105;54.956;73.412;2023-04-25T04:30:13;11.13;31.80
72202;SHT30;60105;54.956;73.412;2023-04-25T04:33:27;11.18;32.18
72202;SHT30;60105;54.956;73.412;2023-04-25T04:36:38;11.20;31.88
72202;SHT30;60105;54.956;73.412;2023-04-25T04:39:46;11.31;31.51
72202;SHT30;60105;54.956;73.412;2023-04-25T04:43:14;11.51;30.56
72202;SHT30;60105;54.956;73.412;2023-04-25T04:47:25;11.81;30.08
72202;SHT30;60105;54.956;73.412;2023-04-25T04:50:48;11.88;29.77
72202;SHT30;60105;54.956;73.412;2023-04-25T04:54:07;12.15;29.86
72202;SHT30;60105;54.956;73.412;2023-04-25T04:57:34;12.14;30.09
72202;SHT30;60105;54.956;73.412;2023-04-25T05:00:48;12.25;29.96
72202;SHT30;60105;54.956;73.412;2023-04-25T05:04:20;12.39;30.16
72202;SHT30;60105;54.956;73.412;2023-04-25T05:07:40;12.42;30.13
72202;SHT30;60105;54.956;73.412;2023-04-25T05:11:00;12.76;30.32
72202;SHT30;60105;54.956;73.412;2023-04-25T05:14:17;12.97;29.89
72202;SHT30;60105;54.956;73.412;2023-04-25T05:17:25;12.93;30.70
72202;SHT30;60105;54.956;73.412;2023-04-25T05:21:02;13.11;30.57
72202;SHT30;60105;54.956;73.412;2023-04-25T05:24:23;13.27;31.03
72202;SHT30;60105;54.956;73.412;2023-04-25T05:28:04;13.45;31.22
72202;SHT30;60105;54.956;73.412;2023-04-25T05:31:29;13.72;31.47
72202;SHT30;60105;54.956;73.412;2023-04-25T05:34:37;13.87;31.60
72202;SHT30;60105;54.956;73.412;2023-04-25T05:37:47;13.99;30.94
72202;SHT30;60105;54.956;73.412;2023-04-25T05:40:49;14.02;31.49
72202;SHT30;60105;54.956;73.412;2023-04-25T05:44:11;14.09;32.26
72202;SHT30;60105;54.956;73.412;2023-04-25T05:47:38;14.10;31.71
72202;SHT30;60105;54.956;73.412;2023-04-25T05:51:00;14.25;32.04
72202;SHT30;60105;54.956;73.412;2023-04-25T05:54:13;14.40;32.70
72202;SHT30;60105;54.956;73.412;2023-04-25T05:57:26;14.57;32.22
72202;SHT30;60105;54.956;73.412;2023-04-25T06:00:28;14.49;32.96
72202;SHT30;60105;54.956;73.412;2023-04-25T06:03:36;14.67;32.99
72202;SHT30;60105;54.956;73.412;2023-04-25T06:07:25;14.71;33.46
72202;SHT30;60105;54.956;73.412;2023-04-25T06:10:26;14.95;33.45
72202;SHT30;60105;54.956;73.412;2023-04-25T06:13:28;15.40;33.00
72202;SHT30;60105;54.956;73.412;2023-04-25T06:16:30;15.16;33.34
72202;SHT30;60105;54.956;73.412;2023-04-25T06:19:32;15.04;33.18
72202;SHT30;60105;54.956;73.412;2023-04-25T06:22:34;14.92;34.31
72202;SHT30;60105;54.956;73.412;2023-04-25T06:25:36;14.72;35.02
72202;SHT30;60105;54.956;73.412;2023-04-25T06:28:37;14.74;35.67
72202;SHT30;60105;54.956;73.412;2023-04-25T06:31:39;14.86;35.13
72202;SHT30;60105;54.956;73.412;2023-04-25T06:34:51;15.00;35.00
72202;SHT30;60105;54.956;73.412;2023-04-25T06:37:52;15.07;35.13
72202;SHT30;60105;54.956;73.412;2023-04-25T06:40:57;15.12;35.92
72202;SHT30;60105;54.956;73.412;2023-04-25T06:43:59;15.26;35.30
72202;SHT30;60105;54.956;73.412;2023-04-25T06:47:25;15.22;35.37
72202;SHT30;60105;54.956;73.412;2023-04-25T06:50:27;15.32;35.80
72202;SHT30;60105;54.956;73.412;2023-04-25T06:53:28;15.22;35.78
72202;SHT30;60105;54.956;73.412;2023-04-25T06:56:34;15.14;36.70
72202;SHT30;60105;54.956;73.412;2023-04-25T06:59:50;15.37;36.71
72202;SHT30;60105;54.956;73.412;2023-04-25T07:02:56;15.44;36.90
72202;SHT30;60105;54.956;73.412;2023-04-25T07:05:58;15.51;36.50
72202;SHT30;60105;54.956;73.412;2023-04-25T07:09:00;15.50;37.44
72202;SHT30;60105;54.956;73.412;2023-04-25T07:12:03;15.60;37.67
72202;SHT30;60105;54.956;73.412;2023-04-25T07:15:15;15.77;37.06
72202;SHT30;60105;54.956;73.412;2023-04-25T07:18:27;15.85;37.12
72202;SHT30;60105;54.956;73.412;2023-04-25T07:21:28;15.81;37.14
72202;SHT30;60105;54.956;73.412;2023-04-25T07:24:33;15.91;37.23
72202;SHT30;60105;54.956;73.412;2023-04-25T07:27:40;16.04;38.45
72202;SHT30;60105;54.956;73.412;2023-04-25T07:30:51;16.05;37.65
72202;SHT30;60105;54.956;73.412;2023-04-25T07:33:53;16.26;39.09
72202;SHT30;60105;54.956;73.412;2023-04-25T07:37:24;16.28;36.94
72202;SHT30;60105;54.956;73.412;2023-04-25T07:40:37;16.34;36.95
72202;SHT30;60105;54.956;73.412;2023-04-25T07:43:42;16.39;36.79
72202;SHT30;60105;54.956;73.412;2023-04-25T07:47:25;16.45;36.92
72202;SHT30;60105;54.956;73.412;2023-04-25T07:50:27;16.56;36.61
72202;SHT30;60105;54.956;73.412;2023-04-25T07:53:34;16.81;37.00
72202;SHT30;60105;54.956;73.412;2023-04-25T07:57:25;16.94;36.34
72202;SHT30;60105;54.956;73.412;2023-04-25T08:00:29;17.17;35.64
72202;SHT30;60105;54.956;73.412;2023-04-25T08:03:53;17.15;35.95
72202;SHT30;60105;54.956;73.412;2023-04-25T08:07:25;17.24;36.69
72202;SHT30;60105;54.956;73.412;2023-04-25T08:10:39;17.25;35.87
72202;SHT30;60105;54.956;73.412;2023-04-25T08:13:41;17.34;36.54
72202;SHT30;60105;54.956;73.412;2023-04-25T08:17:25;17.43;35.69
72202;SHT30;60105;54.956;73.412;2023-04-25T08:20:26;17.62;35.00
72202;SHT30;60105;54.956;73.412;2023-04-25T08:23:30;17.59;35.18
72202;SHT30;60105;54.956;73.412;2023-04-25T08:26:38;17.73;35.24
72202;SHT30;60105;54.956;73.412;2023-04-25T08:29:41;17.69;34.73
72202;SHT30;60105;54.956;73.412;2023-04-25T08:32:44;17.96;34.43
72202;SHT30;60105;54.956;73.412;2023-04-25T08:36:08;18.14;34.19
72202;SHT30;60105;54.956;73.412;2023-04-25T08:39:15;18.08;34.55
72202;SHT30;60105;54.956;73.412;2023-04-25T08:42:33;18.08;34.69
72202;SHT30;60105;54.956;73.412;2023-04-25T08:45:41;17.94;33.83
72202;SHT30;60105;54.956;73.412;2023-04-25T08:48:45;18.14;35.19
72202;SHT30;60105;54.956;73.412;2023-04-25T08:52:28;18.08;35.73
72202;SHT30;60105;54.956;73.412;2023-04-25T08:55:32;17.96;34.29
72202;SHT30;60105;54.956;73.412;2023-04-25T08:58:34;17.85;34.28
72202;SHT30;60105;54.956;73.412;2023-04-25T09:01:36;17.77;34.08
72202;SHT30;60105;54.956;73.412;2023-04-25T09:04:38;17.68;34.48
72202;SHT30;60105;54.956;73.412;2023-04-25T09:07:51;18.07;33.96
72202;SHT30;60105;54.956;73.412;2023-04-25T09:10:52;18.26;33.60
72202;SHT30;60105;54.956;73.412;2023-04-25T09:14:20;18.35;33.47
72202;SHT30;60105;54.956;73.412;2023-04-25T09:17:45;18.64;33.39
72202;SHT30;60105;54.956;73.412;2023-04-25T09:20:48;18.88;32.47
72202;SHT30;60105;54.956;73.412;2023-04-25T09:23:49;18.77;32.11
72202;SHT30;60105;54.956;73.412;2023-04-25T09:27:25;18.77;32.29
72202;SHT30;60105;54.956;73.412;2023-04-25T09:30:56;19.06;31.72
72202;SHT30;60105;54.956;73.412;2023-04-25T09:34:04;19.05;32.55
72202;SHT30;60105;54.956;73.412;2023-04-25T09:40:51;18.79;32.50
72202;SHT30;60105;54.956;73.412;2023-04-25T09:44:13;18.93;31.93
72202;SHT30;60105;54.956;73.412;2023-04-25T09:47:25;18.98;31.32
72202;SHT30;60105;54.956;73.412;2023-04-25T09:50:29;18.84;31.63
72202;SHT30;60105;54.956;73.412;2023-04-25T09:53:42;18.92;33.04
72202;SHT30;60105;54.956;73.412;2023-04-25T09:57:25;19.23;31.43
72202;SHT30;60105;54.956;73.412;2023-04-25T10:00:30;19.54;31.11
72202;SHT30;60105;54.956;73.412;2023-04-25T10:03:40;19.78;30.73
72202;SHT30;60105;54.956;73.412;2023-04-25T10:07:29;19.88;33.19
72202;SHT30;60105;54.956;73.412;2023-04-25T10:10:32;20.02;30.49
72202;SHT30;60105;54.956;73.412;2023-04-25T10:13:37;19.75;30.52
72202;SHT30;60105;54.956;73.412;2023-04-25T10:17:26;19.58;30.39
72202;SHT30;60105;54.956;73.412;2023-04-25T10:20:30;19.50;30.75
72202;SHT30;60105;54.956;73.412;2023-04-25T10:23:38;19.22;30.94
72202;SHT30;60105;54.956;73.412;2023-04-25T10:27:27;19.27;31.26
72202;SHT30;60105;54.956;73.412;2023-04-25T10:30:31;19.47;31.17
72202;SHT30;60105;54.956;73.412;2023-04-25T10:33:36;19.54;31.01
72202;SHT30;60105;54.956;73.412;2023-04-25T10:36:37;19.60;30.64
72202;SHT30;60105;54.956;73.412;2023-04-25T10:39:44;19.73;32.31
72202;SHT30;60105;54.956;73.412;2023-04-25T10:42:45;19.98;30.40
72202;SHT30;60105;54.956;73.412;2023-04-25T10:45:52;20.13;30.42
72202;SHT30;60105;54.956;73.412;2023-04-25T10:48:55;20.16;29.91
72202;SHT30;60105;54.956;73.412;2023-04-25T10:52:26;19.88;30.18
72202;SHT30;60105;54.956;73.412;2023-04-25T10:55:49;19.86;30.17
72202;SHT30;60105;54.956;73.412;2023-04-25T10:58:51;19.89;30.02
72202;SHT30;60105;54.956;73.412;2023-04-25T11:02:28;19.94;30.24
72202;SHT30;60105;54.956;73.412;2023-04-25T11:05:34;19.94;30.31
72202;SHT30;60105;54.956;73.412;2023-04-25T11:08:56;20.19;29.72
72202;SHT30;60105;54.956;73.412;2023-04-25T11:12:04;19.96;29.53
72202;SHT30;60105;54.956;73.412;2023-04-25T11:15:10;19.77;29.80
72202;SHT30;60105;54.956;73.412;2023-04-25T11:18:17;19.68;29.69
72202;SHT30;60105;54.956;73.412;2023-04-25T11:21:30;19.77;30.14
72202;SHT30;60105;54.956;73.412;2023-04-25T11:24:35;19.86;29.66
72202;SHT30;60105;54.956;73.412;2023-04-25T11:27:53;19.86;29.52
72202;SHT30;60105;54.956;73.412;2023-04-25T11:30:56;19.91;29.42
72202;SHT30;60105;54.956;73.412;2023-04-25T11:33:57;20.05;29.44
72202;SHT30;60105;54.956;73.412;2023-04-25T11:37:25;20.09;29.40
72202;SHT30;60105;54.956;73.412;2023-04-25T11:40:27;20.11;29.68
72202;SHT30;60105;54.956;73.412;2023-04-25T11:43:31;20.06;29.17
72202;SHT30;60105;54.956;73.412;2023-04-25T11:46:35;20.09;29.15
72202;SHT30;60105;54.956;73.412;2023-04-25T11:49:37;20.21;29.10
72202;SHT30;60105;54.956;73.412;2023-04-25T11:52:40;20.18;29.76
72202;SHT30;60105;54.956;73.412;2023-04-25T11:55:41;20.09;28.76
72202;SHT30;60105;54.956;73.412;2023-04-25T12:02:25;19.99;28.71
72202;SHT30;60105;54.956;73.412;2023-04-25T12:05:29;20.06;28.55
72202;SHT30;60105;54.956;73.412;2023-04-25T12:08:31;20.12;28.41
72202;SHT30;60105;54.956;73.412;2023-04-25T12:11:44;20.09;28.41
72202;SHT30;60105;54.956;73.412;2023-04-25T12:14:47;20.08;28.86
72202;SHT30;60105;54.956;73.412;2023-04-25T12:17:53;20.12;28.42
72202;SHT30;60105;54.956;73.412;2023-04-25T12:20:57;20.06;28.70
72202;SHT30;60105;54.956;73.412;2023-04-25T12:24:25;20.02;28.25
72202;SHT30;60105;54.956;73.412;2023-04-25T12:27:28;20.08;28.45
72202;SHT30;60105;54.956;73.412;2023-04-25T12:33:57;20.01;28.20
72202;SHT30;60105;54.956;73.412;2023-04-25T12:37:25;20.04;28.77
72202;SHT30;60105;54.956;73.412;2023-04-25T12:40:27;20.06;27.77
72202;SHT30;60105;54.956;73.412;2023-04-25T12:43:38;20.02;28.02
72202;SHT30;60105;54.956;73.412;2023-04-25T12:46:40;19.99;28.22
72202;SHT30;60105;54.956;73.412;2023-04-25T12:49:44;19.86;28.41
72202;SHT30;60105;54.956;73.412;2023-04-25T12:52:45;19.94;28.82
72202;SHT30;60105;54.956;73.412;2023-04-25T12:55:47;19.99;28.21
72202;SHT30;60105;54.956;73.412;2023-04-25T12:58:49;19.88;28.55
72202;SHT30;60105;54.956;73.412;2023-04-25T13:02:25;19.79;28.23
72202;SHT30;60105;54.956;73.412;2023-04-25T13:05:31;19.79;28.35
72202;SHT30;60105;54.956;73.412;2023-04-25T13:08:39;19.75;28.54
72202;SHT30;60105;54.956;73.412;2023-04-25T13:11:53;19.71;28.67
72202;SHT30;60105;54.956;73.412;2023-04-25T13:14:55;19.64;29.00
72202;SHT30;60105;54.956;73.412;2023-04-25T13:18:02;19.55;28.23
72202;SHT30;60105;54.956;73.412;2023-04-25T13:21:04;19.50;29.22
72202;SHT30;60105;54.956;73.412;2023-04-25T13:24:06;19.44;28.81
72202;SHT30;60105;54.956;73.412;2023-04-25T13:27:25;19.33;29.18
72202;SHT30;60105;54.956;73.412;2023-04-25T13:30:26;19.23;29.09
72202;SHT30;60105;54.956;73.412;2023-04-25T13:33:37;19.10;29.36
72202;SHT30;60105;54.956;73.412;2023-04-25T13:36:39;19.00;29.77
72202;SHT30;60105;54.956;73.412;2023-04-25T13:39:40;18.86;29.96
72202;SHT30;60105;54.956;73.412;2023-04-25T13:42:41;18.75;30.10
72202;SHT30;60105;54.956;73.412;2023-04-25T13:45:45;18.66;30.57
72202;SHT30;60105;54.956;73.412;2023-04-25T13:48:56;18.56;30.60
72202;SHT30;60105;54.956;73.412;2023-04-25T13:52:25;18.47;30.67
72202;SHT30;60105;54.956;73.412;2023-04-25T13:55:26;18.40;30.80
72202;SHT30;60105;54.956;73.412;2023-04-25T13:58:28;18.30;31.04
72202;SHT30;60105;54.956;73.412;2023-04-25T14:01:29;18.18;31.47
72202;SHT30;60105;54.956;73.412;2023-04-25T14:04:32;18.08;31.71
72202;SHT30;60105;54.956;73.412;2023-04-25T14:07:34;18.01;31.88
72202;SHT30;60105;54.956;73.412;2023-04-25T14:10:36;17.96;32.10
72202;SHT30;60105;54.956;73.412;2023-04-25T14:13:37;17.83;32.62
72202;SHT30;60105;54.956;73.412;2023-04-25T14:16:39;17.70;32.97
72202;SHT30;60105;54.956;73.412;2023-04-25T14:19:40;17.59;32.94
72202;SHT30;60105;54.956;73.412;2023-04-25T14:22:55;17.50;33.16
72202;SHT30;60105;54.956;73.412;2023-04-25T14:26:08;17.42;33.15
72202;SHT30;60105;54.956;73.412;2023-04-25T14:29:13;17.32;33.42
72202;SHT30;60105;54.956;73.412;2023-04-25T14:32:25;17.19;33.59
72202;SHT30;60105;54.956;73.412;2023-04-25T14:35:26;17.12;34.11
72202;SHT30;60105;54.956;73.412;2023-04-25T14:38:28;17.03;33.84
72202;SHT30;60105;54.956;73.412;2023-04-25T14:41:29;16.95;34.21
72202;SHT30;60105;54.956;73.412;2023-04-25T14:44:30;16.87;34.55
72202;SHT30;60105;54.956;73.412;2023-04-25T14:47:42;16.79;34.39
72202;SHT30;60105;54.956;73.412;2023-04-25T14:50:53;16.71;34.73
72202;SHT30;60105;54.956;73.412;2023-04-25T14:53:55;16.64;34.94
72202;SHT30;60105;54.956;73.412;2023-04-25T14:57:25;16.56;34.88
72202;SHT30;60105;54.956;73.412;2023-04-25T15:00:27;16.49;35.12
72202;SHT30;60105;54.956;73.412;2023-04-25T15:03:28;16.39;35.27
72202;SHT30;60105;54.956;73.412;2023-04-25T15:06:30;16.33;35.52
72202;SHT30;60105;54.956;73.412;2023-04-25T15:09:31;16.26;36.18
72202;SHT30;60105;54.956;73.412;2023-04-25T15:12:32;16.15;35.94
72202;SHT30;60105;54.956;73.412;2023-04-25T15:15:34;16.08;36.19
72202;SHT30;60105;54.956;73.412;2023-04-25T15:18:35;16.02;36.47
72202;SHT30;60105;54.956;73.412;2023-04-25T15:21:37;15.95;36.67
72202;SHT30;60105;54.956;73.412;2023-04-25T15:24:38;15.87;36.70
72202;SHT30;60105;54.956;73.412;2023-04-25T15:27:45;15.81;36.81
72202;SHT30;60105;54.956;73.412;2023-04-25T15:30:59;15.75;36.80
72202;SHT30;60105;54.956;73.412;2023-04-25T15:34:01;15.74;37.02
72202;SHT30;60105;54.956;73.412;2023-04-25T15:37:25;15.70;37.39
72202;SHT30;60105;54.956;73.412;2023-04-25T15:40:27;15.63;37.67
72202;SHT30;60105;54.956;73.412;2023-04-25T15:43:28;15.58;38.00
72202;SHT30;60105;54.956;73.412;2023-04-25T15:46:30;15.50;37.87
72202;SHT30;60105;54.956;73.412;2023-04-25T15:49:31;15.39;38.29
72202;SHT30;60105;54.956;73.412;2023-04-25T15:52:33;15.32;38.73
72202;SHT30;60105;54.956;73.412;2023-04-25T15:55:35;15.29;38.89
72202;SHT30;60105;54.956;73.412;2023-04-25T15:58:37;15.22;38.85
72202;SHT30;60105;54.956;73.412;2023-04-25T16:02:25;15.20;38.67
72202;SHT30;60105;54.956;73.412;2023-04-25T16:05:26;15.18;38.77
72202;SHT30;60105;54.956;73.412;2023-04-25T16:08:28;15.14;38.61
72202;SHT30;60105;54.956;73.412;2023-04-25T16:11:29;15.12;38.65
72202;SHT30;60105;54.956;73.412;2023-04-25T16:14:40;15.10;38.48
72202;SHT30;60105;54.956;73.412;2023-04-25T16:17:42;15.06;38.58
72202;SHT30;60105;54.956;73.412;2023-04-25T16:20:43;15.04;38.76
72202;SHT30;60105;54.956;73.412;2023-04-25T16:23:45;15.00;38.53
72202;SHT30;60105;54.956;73.412;2023-04-25T16:27:25;14.86;38.80
72202;SHT30;60105;54.956;73.412;2023-04-25T16:30:26;14.81;38.85
72202;SHT30;60105;54.956;73.412;2023-04-25T16:33:28;14.74;39.05
72202;SHT30;60105;54.956;73.412;2023-04-25T16:36:29;14.67;39.21
72202;SHT30;60105;54.956;73.412;2023-04-25T16:39:34;14.60;39.11
72202;SHT30;60105;54.956;73.412;2023-04-25T16:42:35;14.55;39.50
72202;SHT30;60105;54.956;73.412;2023-04-25T16:45:37;14.44;39.45
72202;SHT30;60105;54.956;73.412;2023-04-25T16:48:38;14.40;39.68
72202;SHT30;60105;54.956;73.412;2023-04-25T16:51:39;14.35;39.80
72202;SHT30;60105;54.956;73.412;2023-04-25T16:54:46;14.33;39.72
72202;SHT30;60105;54.956;73.412;2023-04-25T16:57:47;14.31;39.65
72202;SHT30;60105;54.956;73.412;2023-04-25T17:00:49;14.27;39.83
72202;SHT30;60105;54.956;73.412;2023-04-25T17:03:50;14.21;39.97
72202;SHT30;60105;54.956;73.412;2023-04-25T17:07:25;14.14;40.02
72202;SHT30;60105;54.956;73.412;2023-04-25T17:10:27;14.12;39.90
72202;SHT30;60105;54.956;73.412;2023-04-25T17:13:28;14.10;40.10
72202;SHT30;60105;54.956;73.412;2023-04-25T17:16:37;14.06;40.35
72202;SHT30;60105;54.956;73.412;2023-04-25T17:19:39;14.03;40.30
72202;SHT30;60105;54.956;73.412;2023-04-25T17:22:41;13.99;40.72
72202;SHT30;60105;54.956;73.412;2023-04-25T17:25:42;13.91;40.80
72202;SHT30;60105;54.956;73.412;2023-04-25T17:28:48;13.86;40.87
72202;SHT30;60105;54.956;73.412;2023-04-25T17:32:26;13.82;40.85
72202;SHT30;60105;54.956;73.412;2023-04-25T17:35:28;13.79;41.01
72202;SHT30;60105;54.956;73.412;2023-04-25T17:38:29;13.77;41.00
72202;SHT30;60105;54.956;73.412;2023-04-25T17:41:37;13.75;40.96
72202;SHT30;60105;54.956;73.412;2023-04-25T17:44:38;13.73;41.21
72202;SHT30;60105;54.956;73.412;2023-04-25T17:47:40;13.72;41.39
72202;SHT30;60105;54.956;73.412;2023-04-25T17:50:41;13.67;41.31
72202;SHT30;60105;54.956;73.412;2023-04-25T17:53:43;13.65;41.44
72202;SHT30;60105;54.956;73.412;2023-04-25T17:57:25;13.59;41.25
72202;SHT30;60105;54.956;73.412;2023-04-25T18:00:27;13.58;41.67
72202;SHT30;60105;54.956;73.412;2023-04-25T18:03:29;13.51;41.59
72202;SHT30;60105;54.956;73.412;2023-04-25T18:07:25;13.44;41.74
72202;SHT30;60105;54.956;73.412;2023-04-25T18:10:26;13.41;42.00
72202;SHT30;60105;54.956;73.412;2023-04-25T18:13:38;13.36;41.92
72202;SHT30;60105;54.956;73.412;2023-04-25T18:16:43;13.28;42.09
72202;SHT30;60105;54.956;73.412;2023-04-25T18:19:45;13.27;42.08
72202;SHT30;60105;54.956;73.412;2023-04-25T18:22:46;13.19;42.31
72202;SHT30;60105;54.956;73.412;2023-04-25T18:25:58;13.15;42.36
72202;SHT30;60105;54.956;73.412;2023-04-25T18:28:59;13.14;42.70
72202;SHT30;60105;54.956;73.412;2023-04-25T18:32:25;13.14;42.39
72202;SHT30;60105;54.956;73.412;2023-04-25T18:35:32;13.11;42.50
72202;SHT30;60105;54.956;73.412;2023-04-25T18:38:33;13.15;42.63
72202;SHT30;60105;54.956;73.412;2023-04-25T18:41:36;13.15;42.40
72202;SHT30;60105;54.956;73.412;2023-04-25T18:44:37;13.14;42.63
72202;SHT30;60105;54.956;73.412;2023-04-25T18:47:42;13.11;42.58
72202;SHT30;60105;54.956;73.412;2023-04-25T18:50:43;13.08;42.42
72202;SHT30;60105;54.956;73.412;2023-04-25T18:53:48;13.06;42.67
72202;SHT30;60105;54.956;73.412;2023-04-25T18:57:25;13.01;42.65
72202;SHT30;60105;54.956;73.412;2023-04-25T19:00:26;12.98;42.82
72202;SHT30;60105;54.956;73.412;2023-04-25T19:03:27;13.00;42.59
72202;SHT30;60105;54.956;73.412;2023-04-25T19:06:29;13.00;42.58
72202;SHT30;60105;54.956;73.412;2023-04-25T19:09:30;13.00;42.58
72202;SHT30;60105;54.956;73.412;2023-04-25T19:12:31;12.98;42.78
72202;SHT30;60105;54.956;73.412;2023-04-25T19:15:33;12.94;42.88
72202;SHT30;60105;54.956;73.412;2023-04-25T19:18:34;12.93;42.88
72202;SHT30;60105;54.956;73.412;2023-04-25T19:21:35;12.88;43.08
72202;SHT30;60105;54.956;73.412;2023-04-25T19:24:37;12.87;43.12
72202;SHT30;60105;54.956;73.412;2023-04-25T19:27:47;12.80;43.26
72202;SHT30;60105;54.956;73.412;2023-04-25T19:30:49;12.77;43.45
72202;SHT30;60105;54.956;73.412;2023-04-25T19:33:50;12.76;43.83
72202;SHT30;60105;54.956;73.412;2023-04-25T19:37:25;12.70;43.78
72202;SHT30;60105;54.956;73.412;2023-04-25T19:40:26;12.70;43.59
72202;SHT30;60105;54.956;73.412;2023-04-25T19:43:28;12.70;43.68
72202;SHT30;60105;54.956;73.412;2023-04-25T19:46:30;12.72;43.58
72202;SHT30;60105;54.956;73.412;2023-04-25T19:49:31;12.66;43.68
72202;SHT30;60105;54.956;73.412;2023-04-25T19:52:36;12.67;43.94